createdAt,value
2022-10-05T00:00:20.765Z,14.17
2022-10-05T00:02:49.720Z,11.13
2022-10-05T00:05:30.389Z,12.17
2022-10-05T00:08:06.238Z,11.83
2022-10-05T00:10:34.759Z,10.17
2022-10-05T00:13:07.321Z,12.20
2022-10-05T00:15:37.387Z,9.20
2022-10-05T00:18:13.970Z,10.13
2022-10-05T00:20:43.611Z,13.37
2022-10-05T00:23:18.934Z,13.87
2022-10-05T00:25:47.702Z,15.73
2022-10-05T00:28:27.675Z,13.93
2022-10-05T00:30:57.244Z,13.60
2022-10-05T00:33:25.929Z,14.67
2022-10-05T00:35:56.001Z,11.10
2022-10-05T00:38:24.818Z,9.50
2022-10-05T00:41:05.721Z,8.70
2022-10-05T00:44:07.011Z,8.50
2022-10-05T00:46:49.605Z,10.53
2022-10-05T00:49:43.712Z,10.20
2022-10-05T00:52:22.167Z,12.90
2022-10-05T00:54:59.726Z,11.47
2022-10-05T00:57:38.621Z,10.10
2022-10-05T01:00:12.487Z,11.50
2022-10-05T01:02:55.482Z,10.73
2022-10-05T01:05:34.836Z,16.03
2022-10-05T01:08:12.882Z,11.37
2022-10-05T01:10:48.679Z,18.27
2022-10-05T01:13:25.646Z,20.73
2022-10-05T01:16:04.221Z,10.70
2022-10-05T01:18:40.653Z,10.30
2022-10-05T01:21:16.767Z,14.73
2022-10-05T01:24:15.192Z,12.17
2022-10-05T01:27:08.916Z,14.47
2022-10-05T01:29:44.188Z,20.80
2022-10-05T01:32:23.777Z,14.33
2022-10-05T01:35:01.032Z,13.17
2022-10-05T01:37:43.224Z,10.70
2022-10-05T01:40:19.804Z,15.77
2022-10-05T01:43:00.277Z,9.90
2022-10-05T01:45:40.625Z,11.07
2022-10-05T01:48:16.345Z,13.23
2022-10-05T01:50:53.959Z,13.70
2022-10-05T01:53:36.465Z,20.57
2022-10-05T01:56:15.788Z,10.93
2022-10-05T01:58:52.593Z,12.97
2022-10-05T02:01:34.555Z,19.03
2022-10-05T02:04:08.484Z,16.03
2022-10-05T02:06:41.648Z,13.87
2022-10-05T02:09:15.572Z,20.33
2022-10-05T02:11:48.494Z,16.87
2022-10-05T02:14:22.549Z,18.43
2022-10-05T02:16:55.708Z,14.13
2022-10-05T02:19:28.624Z,15.30
2022-10-05T02:22:03.200Z,12.67
2022-10-05T02:24:38.865Z,14.03
2022-10-05T02:27:10.492Z,11.73
2022-10-05T02:29:46.724Z,10.97
2022-10-05T02:32:22.786Z,11.70
2022-10-05T02:34:51.560Z,11.40
2022-10-05T02:37:37.855Z,13.50
2022-10-05T02:40:18.693Z,16.63
2022-10-05T02:42:57.556Z,20.27
2022-10-05T02:45:37.334Z,11.20
2022-10-05T02:48:13.332Z,13.10
2022-10-05T02:50:50.630Z,13.90
2022-10-05T02:53:26.117Z,11.90
2022-10-05T02:56:04.197Z,15.97
2022-10-05T02:58:40.140Z,15.30
2022-10-05T03:01:18.177Z,14.33
2022-10-05T03:03:57.276Z,18.03
2022-10-05T03:06:31.918Z,20.30
2022-10-05T03:09:04.181Z,17.77
2022-10-05T03:11:42.802Z,14.73
2022-10-05T03:14:18.412Z,13.70
2022-10-05T03:16:56.798Z,15.20
2022-10-05T03:19:48.367Z,14.00
2022-10-05T03:22:29.809Z,15.60
2022-10-05T03:25:19.238Z,20.17
2022-10-05T03:27:53.374Z,12.60
2022-10-05T03:30:26.589Z,13.00
2022-10-05T03:33:04.112Z,17.23
2022-10-05T03:35:42.577Z,14.57
2022-10-05T03:38:19.115Z,20.13
2022-10-05T03:40:55.847Z,16.40
2022-10-05T03:43:41.672Z,16.73
2022-10-05T03:46:17.027Z,24.73
2022-10-05T03:48:53.753Z,17.47
2022-10-05T03:51:35.343Z,18.40
2022-10-05T03:54:12.718Z,17.67
2022-10-05T03:56:46.658Z,28.10
2022-10-05T03:59:20.701Z,18.73
2022-10-05T04:01:54.962Z,23.40
2022-10-05T04:04:29.339Z,21.77
2022-10-05T04:07:01.212Z,23.73
2022-10-05T04:09:35.163Z,26.90
2022-10-05T04:12:10.835Z,20.97
2022-10-05T04:14:42.581Z,29.47
2022-10-05T04:17:14.943Z,24.50
2022-10-05T04:19:47.358Z,21.00
2022-10-05T04:22:23.068Z,22.37
2022-10-05T04:24:56.083Z,24.40
2022-10-05T04:27:30.453Z,19.90
2022-10-05T04:30:05.242Z,24.87
2022-10-05T04:32:39.959Z,18.87
2022-10-05T04:35:24.775Z,19.13
2022-10-05T04:38:02.779Z,17.10
2022-10-05T04:40:41.879Z,20.40
2022-10-05T04:43:16.475Z,24.10
2022-10-05T04:46:17.220Z,22.23
2022-10-05T04:49:25.803Z,23.50
2022-10-05T04:52:02.131Z,20.03
2022-10-05T04:54:45.519Z,21.70
2022-10-05T04:57:20.628Z,30.07
2022-10-05T05:00:16.950Z,23.33
2022-10-05T05:03:04.719Z,23.27
2022-10-05T05:06:05.037Z,26.70
2022-10-05T05:08:48.992Z,25.03
2022-10-05T05:11:30.043Z,22.70
2022-10-05T05:14:33.245Z,21.20
2022-10-05T05:17:16.688Z,26.93
2022-10-05T05:19:54.759Z,24.23
2022-10-05T05:22:30.945Z,25.13
2022-10-05T05:25:18.312Z,24.13
2022-10-05T05:27:54.910Z,22.50
2022-10-05T05:30:31.469Z,30.47
2022-10-05T05:33:12.277Z,22.83
2022-10-05T05:36:05.921Z,20.93
2022-10-05T05:38:39.984Z,20.30
2022-10-05T05:41:12.200Z,21.30
2022-10-05T05:43:55.564Z,21.60
2022-10-05T05:46:51.236Z,23.70
2022-10-05T05:49:21.932Z,23.90
2022-10-05T05:51:56.733Z,25.77
2022-10-05T05:54:31.343Z,31.17
2022-10-05T05:57:09.087Z,26.67
2022-10-05T05:59:52.997Z,23.43
2022-10-05T06:02:27.588Z,27.03
2022-10-05T06:05:02.187Z,27.50
2022-10-05T06:07:32.608Z,29.90
2022-10-05T06:10:26.447Z,24.00
2022-10-05T06:13:20.756Z,34.23
2022-10-05T06:15:55.846Z,19.07
2022-10-05T06:18:25.484Z,33.03
2022-10-05T06:21:00.675Z,27.33
2022-10-05T06:23:36.666Z,18.40
2022-10-05T06:26:17.524Z,15.40
2022-10-05T06:28:52.238Z,15.87
2022-10-05T06:31:36.514Z,13.10
2022-10-05T06:34:23.757Z,16.27
2022-10-05T06:36:56.039Z,10.53
2022-10-05T06:39:46.797Z,10.60
2022-10-05T06:42:27.987Z,11.13
2022-10-05T06:45:30.440Z,12.00
2022-10-05T06:48:21.193Z,14.63
2022-10-05T06:51:16.958Z,15.03
2022-10-05T06:54:06.708Z,12.20
2022-10-05T06:56:40.996Z,12.20
2022-10-05T06:59:15.385Z,15.20
2022-10-05T07:01:54.425Z,11.40
2022-10-05T07:04:45.466Z,12.23
2022-10-05T07:07:23.369Z,11.47
2022-10-05T07:10:05.609Z,12.63
2022-10-05T07:12:54.198Z,21.93
2022-10-05T07:15:42.601Z,16.50
2022-10-05T07:18:32.107Z,11.80
2022-10-05T07:21:10.461Z,16.00
2022-10-05T07:24:05.792Z,19.53
2022-10-05T07:26:40.733Z,17.57
2022-10-05T07:29:22.151Z,17.50
2022-10-05T07:31:58.899Z,19.37
2022-10-05T07:34:37.538Z,19.70
2022-10-05T07:37:28.311Z,20.50
2022-10-05T07:40:05.229Z,19.20
2022-10-05T07:42:51.745Z,16.53
2022-10-05T07:45:29.989Z,16.43
2022-10-05T07:48:06.886Z,22.80
2022-10-05T07:50:39.823Z,16.63
2022-10-05T07:53:17.635Z,12.07
2022-10-05T07:55:51.194Z,15.23
2022-10-05T07:58:27.597Z,14.60
2022-10-05T08:01:05.577Z,19.90
2022-10-05T08:03:49.408Z,16.10
2022-10-05T08:06:42.003Z,14.70
2022-10-05T08:09:23.749Z,14.00
2022-10-05T08:11:58.712Z,12.87
2022-10-05T08:14:33.693Z,15.53
2022-10-05T08:17:07.240Z,14.30
2022-10-05T08:20:03.233Z,14.73
2022-10-05T08:22:36.114Z,17.50
2022-10-05T08:25:10.953Z,17.07
2022-10-05T08:27:47.304Z,20.93
2022-10-05T08:30:17.300Z,15.93
2022-10-05T08:32:51.765Z,16.30
2022-10-05T08:35:28.884Z,18.37
2022-10-05T08:37:58.045Z,17.57
2022-10-05T08:41:07.156Z,24.07
2022-10-05T08:44:10.793Z,27.63
2022-10-05T08:47:13.649Z,27.10
2022-10-05T08:50:12.661Z,23.03
2022-10-05T08:53:06.722Z,25.33
2022-10-05T08:55:44.632Z,27.57
2022-10-05T08:58:47.027Z,33.40
2022-10-05T09:01:23.890Z,27.17
2022-10-05T09:04:40.163Z,25.37
2022-10-05T09:07:29.664Z,28.00
2022-10-05T09:10:32.449Z,23.70
2022-10-05T09:13:46.393Z,25.97
2022-10-05T09:16:39.324Z,24.80
2022-10-05T09:19:45.356Z,32.50
2022-10-05T09:22:17.018Z,34.30
2022-10-05T09:24:56.453Z,29.10
2022-10-05T09:27:37.336Z,27.33
2022-10-05T09:30:22.616Z,28.17
2022-10-05T09:33:16.992Z,35.40
2022-10-05T09:36:39.294Z,31.67
2022-10-05T09:39:36.527Z,34.87
2022-10-05T09:42:39.669Z,26.47
2022-10-05T09:45:37.508Z,29.60
2022-10-05T09:48:39.959Z,30.27
2022-10-05T09:51:43.831Z,38.63
2022-10-05T09:55:01.273Z,29.57
2022-10-05T09:57:54.834Z,27.23
2022-10-05T10:00:31.017Z,26.10
2022-10-05T10:03:23.256Z,22.83
2022-10-05T10:06:30.561Z,25.83
2022-10-05T10:09:37.891Z,27.77
2022-10-05T10:12:29.409Z,31.40
2022-10-05T10:15:34.347Z,23.50
2022-10-05T10:18:30.725Z,20.70
2022-10-05T10:21:29.411Z,21.83
2022-10-05T10:24:28.726Z,17.60
2022-10-05T10:27:12.223Z,18.27
2022-10-05T10:30:10.259Z,20.10
2022-10-05T10:33:11.343Z,18.73
2022-10-05T10:35:45.951Z,23.13
2022-10-05T10:38:36.343Z,16.30
2022-10-05T10:41:40.263Z,24.67
2022-10-05T10:44:47.025Z,16.40
2022-10-05T10:47:40.137Z,16.83
2022-10-05T10:50:50.515Z,16.57
2022-10-05T10:53:51.084Z,16.80
2022-10-05T10:56:44.513Z,13.97
2022-10-05T10:59:57.880Z,12.87
2022-10-05T11:03:10.349Z,12.27
2022-10-05T11:06:17.272Z,12.23
2022-10-05T11:09:15.360Z,14.07
2022-10-05T11:12:17.834Z,13.20
2022-10-05T11:15:12.171Z,10.30
2022-10-05T11:18:00.806Z,11.97
2022-10-05T11:20:58.812Z,15.37
2022-10-05T11:23:57.982Z,12.67
2022-10-05T11:26:41.149Z,15.60
2022-10-05T11:29:30.312Z,12.00
2022-10-05T11:32:35.230Z,14.10
2022-10-05T11:35:29.465Z,15.10
2022-10-05T11:38:30.281Z,14.57
2022-10-05T11:41:33.823Z,13.80
2022-10-05T11:44:32.044Z,12.40
2022-10-05T11:47:05.070Z,12.73
2022-10-05T11:49:41.278Z,13.27
2022-10-05T11:52:20.312Z,12.30
2022-10-05T11:55:19.295Z,13.00
2022-10-05T11:57:52.967Z,14.60
2022-10-05T12:00:23.488Z,14.87
2022-10-05T12:03:31.721Z,12.00
2022-10-05T12:06:21.959Z,14.17
2022-10-05T12:09:03.771Z,11.87
2022-10-05T12:11:57.737Z,15.73
2022-10-05T12:14:38.505Z,12.13
2022-10-05T12:17:18.516Z,18.43
2022-10-05T12:19:49.985Z,12.13
2022-10-05T12:22:23.006Z,13.70
2022-10-05T12:25:07.330Z,13.20
2022-10-05T12:27:40.392Z,9.67
2022-10-05T12:30:18.718Z,12.40
2022-10-05T12:33:00.924Z,11.33
2022-10-05T12:35:48.000Z,16.03
2022-10-05T12:38:27.048Z,14.53
2022-10-05T12:41:05.188Z,11.70
2022-10-05T12:43:42.676Z,13.50
2022-10-05T12:46:23.258Z,14.63
2022-10-05T12:49:28.117Z,16.70
2022-10-05T12:51:59.416Z,14.70
2022-10-05T12:54:37.468Z,12.73
2022-10-05T12:57:14.034Z,15.37
2022-10-05T12:59:48.752Z,13.37
2022-10-05T13:02:27.195Z,11.47
2022-10-05T13:05:04.299Z,14.73
2022-10-05T13:07:48.008Z,12.23
2022-10-05T13:10:31.836Z,10.77
2022-10-05T13:13:13.579Z,11.30
2022-10-05T13:15:49.281Z,11.83
2022-10-05T13:18:27.271Z,14.40
2022-10-05T13:21:04.488Z,15.33
2022-10-05T13:23:43.637Z,11.33
2022-10-05T13:26:15.754Z,12.63
2022-10-05T13:28:52.827Z,9.70
2022-10-05T13:31:25.520Z,12.93
2022-10-05T13:34:12.745Z,10.60
2022-10-05T13:36:51.639Z,11.90
2022-10-05T13:39:31.696Z,11.13
2022-10-05T13:42:06.114Z,8.23
2022-10-05T13:44:39.860Z,9.53
2022-10-05T13:47:16.785Z,11.17
2022-10-05T13:49:55.178Z,8.03
2022-10-05T13:52:43.526Z,14.23
2022-10-05T13:55:22.192Z,12.80
2022-10-05T13:58:02.515Z,14.90
2022-10-05T14:00:31.546Z,13.33
2022-10-05T14:03:02.014Z,11.93
2022-10-05T14:05:32.935Z,12.87
2022-10-05T14:08:18.259Z,11.43
2022-10-05T14:10:48.324Z,11.13
2022-10-05T14:13:23.570Z,10.70
2022-10-05T14:16:21.258Z,13.83
2022-10-05T14:18:56.174Z,14.20
2022-10-05T14:21:27.603Z,18.33
2022-10-05T14:23:58.779Z,8.10
2022-10-05T14:26:38.551Z,10.43
2022-10-05T14:29:19.520Z,9.80
2022-10-05T14:31:52.378Z,7.47
2022-10-05T14:34:31.239Z,9.87
2022-10-05T14:37:09.999Z,10.63
2022-10-05T14:39:43.722Z,8.20
2022-10-05T14:42:18.112Z,12.23
2022-10-05T14:44:57.838Z,11.53
2022-10-05T14:47:30.356Z,12.23
2022-10-05T14:50:14.044Z,6.13
2022-10-05T14:52:51.725Z,8.53
2022-10-05T14:55:42.694Z,7.37
2022-10-05T14:58:35.070Z,11.33
2022-10-05T15:01:13.698Z,7.97
2022-10-05T15:03:52.175Z,9.87
2022-10-05T15:06:28.161Z,9.63
2022-10-05T15:09:20.076Z,9.40
2022-10-05T15:11:52.393Z,8.37
2022-10-05T15:14:24.964Z,9.37
2022-10-05T15:16:55.653Z,8.27
2022-10-05T15:19:28.564Z,19.93
2022-10-05T15:22:24.663Z,9.53
2022-10-05T15:25:03.588Z,15.10
2022-10-05T15:27:44.016Z,14.07
2022-10-05T15:30:17.904Z,8.50
2022-10-05T15:33:08.971Z,13.53
2022-10-05T15:35:55.363Z,8.57
2022-10-05T15:38:26.565Z,16.93
2022-10-05T15:41:09.341Z,7.50
2022-10-05T15:43:48.711Z,8.70
2022-10-05T15:46:23.414Z,8.53
2022-10-05T15:49:08.529Z,11.50
2022-10-05T15:51:50.219Z,8.47
2022-10-05T15:54:43.961Z,7.43
2022-10-05T15:57:31.178Z,7.53
2022-10-05T16:00:04.346Z,8.33
2022-10-05T16:02:40.992Z,6.87
2022-10-05T16:05:45.877Z,7.03
2022-10-05T16:08:40.496Z,9.60
2022-10-05T16:11:16.987Z,11.13
2022-10-05T16:13:55.521Z,7.13
2022-10-05T16:16:30.080Z,9.70
2022-10-05T16:19:05.219Z,8.47
2022-10-05T16:21:44.182Z,8.30
2022-10-05T16:24:24.356Z,7.57
2022-10-05T16:27:00.693Z,6.97
2022-10-05T16:29:40.406Z,7.07
2022-10-05T16:32:14.879Z,6.90
2022-10-05T16:35:00.747Z,9.90
2022-10-05T16:37:39.146Z,15.17
2022-10-05T16:40:15.983Z,12.07
2022-10-05T16:42:54.374Z,13.03
2022-10-05T16:45:44.807Z,13.40
2022-10-05T16:48:19.765Z,10.43
2022-10-05T16:50:57.444Z,10.57
2022-10-05T16:53:31.713Z,7.67
2022-10-05T16:56:04.777Z,6.57
2022-10-05T16:58:45.453Z,7.30
2022-10-05T17:01:27.407Z,9.07
2022-10-05T17:04:12.164Z,12.47
2022-10-05T17:07:17.880Z,6.17
2022-10-05T17:10:13.324Z,8.43
2022-10-05T17:12:56.227Z,9.60
2022-10-05T17:15:41.006Z,9.87
2022-10-05T17:18:24.910Z,9.40
2022-10-05T17:21:02.518Z,6.47
2022-10-05T17:23:51.660Z,10.80
2022-10-05T17:26:38.727Z,12.13
2022-10-05T17:29:15.229Z,12.27
2022-10-05T17:32:03.140Z,8.93
2022-10-05T17:34:34.771Z,8.90
2022-10-05T17:37:19.196Z,10.70
2022-10-05T17:39:50.433Z,10.53
2022-10-05T17:42:47.336Z,8.53
2022-10-05T17:45:52.720Z,13.97
2022-10-05T17:49:04.092Z,15.70
2022-10-05T17:52:19.295Z,11.00
2022-10-05T17:55:30.588Z,14.60
2022-10-05T17:58:02.064Z,14.30
2022-10-05T18:00:42.114Z,14.33
2022-10-05T18:03:37.381Z,13.37
2022-10-05T18:06:33.306Z,18.80
2022-10-05T18:09:33.076Z,25.97
2022-10-05T18:12:39.862Z,14.17
2022-10-05T18:15:44.127Z,14.10
2022-10-05T18:18:54.702Z,16.60
2022-10-05T18:21:35.698Z,20.00
2022-10-05T18:24:31.437Z,12.13
2022-10-05T18:27:16.313Z,15.23
2022-10-05T18:30:05.559Z,11.17
2022-10-05T18:32:48.053Z,18.50
2022-10-05T18:35:21.006Z,15.57
2022-10-05T18:38:03.087Z,12.27
2022-10-05T18:40:43.333Z,17.13
2022-10-05T18:43:29.087Z,11.20
2022-10-05T18:46:12.775Z,16.70
2022-10-05T18:48:50.202Z,13.90
2022-10-05T18:51:24.471Z,12.53
2022-10-05T18:54:13.017Z,14.73
2022-10-05T18:56:47.420Z,11.03
2022-10-05T18:59:36.429Z,15.60
2022-10-05T19:02:19.947Z,10.30
2022-10-05T19:05:02.791Z,17.10
2022-10-05T19:07:44.115Z,15.97
2022-10-05T19:10:23.071Z,16.13
2022-10-05T19:13:05.013Z,9.80
2022-10-05T19:15:46.300Z,13.30
2022-10-05T19:18:33.053Z,10.60
2022-10-05T19:21:12.132Z,13.20
2022-10-05T19:23:56.443Z,21.10
2022-10-05T19:26:42.614Z,11.80
2022-10-05T19:29:23.034Z,9.40
2022-10-05T19:32:00.868Z,8.97
2022-10-05T19:34:44.846Z,12.53
2022-10-05T19:37:18.843Z,12.63
2022-10-05T19:39:55.265Z,10.53
2022-10-05T19:42:50.137Z,7.60
2022-10-05T19:45:23.721Z,12.67
2022-10-05T19:48:12.845Z,8.70
2022-10-05T19:50:52.892Z,12.53
2022-10-05T19:53:28.250Z,12.37
2022-10-05T19:55:57.435Z,10.77
2022-10-05T19:58:28.311Z,17.20
2022-10-05T20:00:59.510Z,8.00
2022-10-05T20:03:31.694Z,10.53
2022-10-05T20:06:02.281Z,15.70
2022-10-05T20:08:40.391Z,12.80
2022-10-05T20:11:13.150Z,11.20
2022-10-05T20:13:43.330Z,12.43
2022-10-05T20:16:38.536Z,9.40
2022-10-05T20:19:48.308Z,17.30
2022-10-05T20:22:32.920Z,7.27
2022-10-05T20:25:03.887Z,15.83
2022-10-05T20:27:47.154Z,10.87
2022-10-05T20:30:18.388Z,10.27
2022-10-05T20:32:49.418Z,8.77
2022-10-05T20:35:21.840Z,10.80
2022-10-05T20:37:51.004Z,12.80
2022-10-05T20:40:20.393Z,9.20
2022-10-05T20:42:49.054Z,10.30
2022-10-05T20:45:17.314Z,10.73
2022-10-05T20:47:46.630Z,11.50
2022-10-05T20:50:15.800Z,10.70
2022-10-05T20:52:45.906Z,10.77
2022-10-05T20:55:14.233Z,13.93
2022-10-05T20:57:42.678Z,11.77
2022-10-05T21:00:12.836Z,10.17
2022-10-05T21:02:41.162Z,10.53
2022-10-05T21:05:10.627Z,12.17
2022-10-05T21:07:39.639Z,13.20
2022-10-05T21:10:10.137Z,13.80
2022-10-05T21:12:38.579Z,12.07
2022-10-05T21:15:07.813Z,10.40
2022-10-05T21:17:39.156Z,20.17
2022-10-05T21:20:11.570Z,13.57
2022-10-05T21:22:39.961Z,8.90
2022-10-05T21:25:10.360Z,12.17
2022-10-05T21:27:38.803Z,11.93
2022-10-05T21:30:08.233Z,12.70
2022-10-05T21:32:40.578Z,10.97
2022-10-05T21:35:11.640Z,9.77
2022-10-05T21:37:39.941Z,15.33
2022-10-05T21:40:10.622Z,11.83
2022-10-05T21:42:39.141Z,20.30
2022-10-05T21:45:08.616Z,11.00
2022-10-05T21:47:37.209Z,10.37
2022-10-05T21:50:08.009Z,12.83
2022-10-05T21:52:37.162Z,12.83
2022-10-05T21:55:07.073Z,16.07
2022-10-05T21:57:37.468Z,12.87
2022-10-05T22:00:08.980Z,9.53
2022-10-05T22:02:37.729Z,10.43
2022-10-05T22:05:06.535Z,8.40
2022-10-05T22:07:35.093Z,11.40
2022-10-05T22:10:05.728Z,12.20
2022-10-05T22:12:35.853Z,10.77
2022-10-05T22:15:04.933Z,11.70
2022-10-05T22:17:33.458Z,13.33
2022-10-05T22:20:02.744Z,16.93
2022-10-05T22:22:33.190Z,11.97
2022-10-05T22:25:01.503Z,16.50
2022-10-05T22:27:31.716Z,11.23
2022-10-05T22:30:03.114Z,11.77
2022-10-05T22:32:31.682Z,10.17
2022-10-05T22:34:59.991Z,9.20
2022-10-05T22:37:28.430Z,9.60
2022-10-05T22:39:56.742Z,9.77
2022-10-05T22:42:25.026Z,12.10
2022-10-05T22:44:53.359Z,11.80
2022-10-05T22:47:22.964Z,12.17
2022-10-05T22:49:51.524Z,14.23
2022-10-05T22:52:19.812Z,9.83
2022-10-05T22:54:48.082Z,13.37
2022-10-05T22:57:16.378Z,13.53
2022-10-05T22:59:44.860Z,10.03
2022-10-05T23:02:14.145Z,10.30
2022-10-05T23:04:43.929Z,12.87
2022-10-05T23:07:12.265Z,12.30
2022-10-05T23:09:40.636Z,12.10
2022-10-05T23:12:08.896Z,12.20
2022-10-05T23:14:37.189Z,9.63
2022-10-05T23:17:06.041Z,11.37
2022-10-05T23:19:34.376Z,13.40
2022-10-05T23:22:04.065Z,10.70
2022-10-05T23:24:32.463Z,11.00
2022-10-05T23:27:00.863Z,11.40
2022-10-05T23:29:29.560Z,9.60
2022-10-05T23:31:57.920Z,13.17
2022-10-05T23:34:27.340Z,10.80
2022-10-05T23:36:55.712Z,10.70
2022-10-05T23:39:25.395Z,12.90
2022-10-05T23:41:53.775Z,12.13
2022-10-05T23:44:23.063Z,10.43
2022-10-05T23:46:51.383Z,15.53
2022-10-05T23:49:19.830Z,12.30
2022-10-05T23:51:48.168Z,9.30
2022-10-05T23:54:16.464Z,9.53
2022-10-05T23:56:46.132Z,12.20
2022-10-05T23:59:14.389Z,12.10
